sensor_id;sensor_type;location;lat;lon;timestamp;P1;durP1;ratioP1;P2;durP2;ratioP2
19969;SDS011;10146;47.754;9.566;2022-10-31T00:00:56;23.45;;;20.52;;
19969;SDS011;10146;47.754;9.566;2022-10-31T00:03:22;25.52;;;20.77;;
19969;SDS011;10146;47.754;9.566;2022-10-31T00:05:49;23.40;;;20.35;;
19969;SDS011;10146;47.754;9.566;2022-10-31T00:08:15;22.73;;;19.20;;
19969;SDS011;10146;47.754;9.566;2022-10-31T00:10:42;25.13;;;21.15;;
19969;SDS011;10146;47.754;9.566;2022-10-31T00:13:09;22.98;;;20.33;;
19969;SDS011;10146;47.754;9.566;2022-10-31T00:15:38;21.65;;;19.02;;
19969;SDS011;10146;47.754;9.566;2022-10-31T00:18:05;22.08;;;19.77;;
19969;SDS011;10146;47.754;9.566;2022-10-31T00:20:32;24.20;;;20.70;;
19969;SDS011;10146;47.754;9.566;2022-10-31T00:22:58;22.95;;;20.60;;
19969;SDS011;10146;47.754;9.566;2022-10-31T00:25:25;22.98;;;18.88;;
19969;SDS011;10146;47.754;9.566;2022-10-31T00:27:52;22.83;;;20.40;;
19969;SDS011;10146;47.754;9.566;2022-10-31T00:30:18;23.60;;;20.55;;
19969;SDS011;10146;47.754;9.566;2022-10-31T00:32:43;22.23;;;19.23;;
19969;SDS011;10146;47.754;9.566;2022-10-31T00:35:09;23.85;;;20.67;;
19969;SDS011;10146;47.754;9.566;2022-10-31T00:37:35;26.40;;;19.83;;
19969;SDS011;10146;47.754;9.566;2022-10-31T00:40:00;23.90;;;19.65;;
19969;SDS011;10146;47.754;9.566;2022-10-31T00:42:26;24.75;;;20.27;;
19969;SDS011;10146;47.754;9.566;2022-10-31T00:44:51;21.13;;;18.92;;
19969;SDS011;10146;47.754;9.566;2022-10-31T00:47:17;24.70;;;19.95;;
19969;SDS011;10146;47.754;9.566;2022-10-31T00:49:42;21.98;;;19.67;;
19969;SDS011;10146;47.754;9.566;2022-10-31T00:52:08;31.98;;;21.30;;
19969;SDS011;10146;47.754;9.566;2022-10-31T00:54:33;40.85;;;24.58;;
19969;SDS011;10146;47.754;9.566;2022-10-31T00:56:59;35.40;;;23.33;;
19969;SDS011;10146;47.754;9.566;2022-10-31T00:59:25;36.92;;;24.30;;
19969;SDS011;10146;47.754;9.566;2022-10-31T01:01:50;39.25;;;25.88;;
19969;SDS011;10146;47.754;9.566;2022-10-31T01:04:16;32.30;;;24.08;;
19969;SDS011;10146;47.754;9.566;2022-10-31T01:06:41;30.38;;;23.13;;
19969;SDS011;10146;47.754;9.566;2022-10-31T01:09:07;27.02;;;21.40;;
19969;SDS011;10146;47.754;9.566;2022-10-31T01:11:33;29.13;;;22.02;;
19969;SDS011;10146;47.754;9.566;2022-10-31T01:13:58;28.35;;;22.15;;
19969;SDS011;10146;47.754;9.566;2022-10-31T01:16:24;24.20;;;20.80;;
19969;SDS011;10146;47.754;9.566;2022-10-31T01:18:51;23.67;;;19.17;;
19969;SDS011;10146;47.754;9.566;2022-10-31T01:21:21;25.08;;;19.30;;
19969;SDS011;10146;47.754;9.566;2022-10-31T01:23:49;23.05;;;19.33;;
19969;SDS011;10146;47.754;9.566;2022-10-31T01:26:17;21.02;;;18.83;;
19969;SDS011;10146;47.754;9.566;2022-10-31T01:28:54;26.25;;;20.65;;
19969;SDS011;10146;47.754;9.566;2022-10-31T01:31:31;22.20;;;19.90;;
19969;SDS011;10146;47.754;9.566;2022-10-31T01:33:59;24.52;;;21.15;;
19969;SDS011;10146;47.754;9.566;2022-10-31T01:36:28;24.35;;;21.75;;
19969;SDS011;10146;47.754;9.566;2022-10-31T01:38:57;22.25;;;20.00;;
19969;SDS011;10146;47.754;9.566;2022-10-31T01:41:26;21.13;;;19.02;;
19969;SDS011;10146;47.754;9.566;2022-10-31T01:43:57;22.73;;;20.10;;
19969;SDS011;10146;47.754;9.566;2022-10-31T01:46:32;20.30;;;18.27;;
19969;SDS011;10146;47.754;9.566;2022-10-31T01:49:09;23.05;;;19.75;;
19969;SDS011;10146;47.754;9.566;2022-10-31T01:51:41;23.17;;;19.77;;
19969;SDS011;10146;47.754;9.566;2022-10-31T01:54:14;23.92;;;19.60;;
19969;SDS011;10146;47.754;9.566;2022-10-31T01:56:43;24.15;;;19.25;;
19969;SDS011;10146;47.754;9.566;2022-10-31T01:59:13;26.95;;;20.60;;
19969;SDS011;10146;47.754;9.566;2022-10-31T02:01:44;32.25;;;21.58;;
19969;SDS011;10146;47.754;9.566;2022-10-31T02:04:10;30.25;;;21.67;;
19969;SDS011;10146;47.754;9.566;2022-10-31T02:06:41;39.58;;;23.40;;
19969;SDS011;10146;47.754;9.566;2022-10-31T02:09:12;29.23;;;21.52;;
19969;SDS011;10146;47.754;9.566;2022-10-31T02:11:40;35.03;;;22.55;;
19969;SDS011;10146;47.754;9.566;2022-10-31T02:14:07;28.27;;;20.92;;
19969;SDS011;10146;47.754;9.566;2022-10-31T02:16:32;27.98;;;20.73;;
19969;SDS011;10146;47.754;9.566;2022-10-31T02:18:58;32.63;;;23.63;;
19969;SDS011;10146;47.754;9.566;2022-10-31T02:24:04;26.63;;;21.77;;
19969;SDS011;10146;47.754;9.566;2022-10-31T02:27:02;25.77;;;21.65;;
19969;SDS011;10146;47.754;9.566;2022-10-31T02:35:10;36.95;;;23.05;;
19969;SDS011;10146;47.754;9.566;2022-10-31T02:40:34;32.83;;;22.23;;
19969;SDS011;10146;47.754;9.566;2022-10-31T02:43:06;33.92;;;23.23;;
19969;SDS011;10146;47.754;9.566;2022-10-31T02:46:01;35.00;;;23.48;;
19969;SDS011;10146;47.754;9.566;2022-10-31T02:48:28;33.53;;;22.92;;
19969;SDS011;10146;47.754;9.566;2022-10-31T02:51:00;40.53;;;23.95;;
19969;SDS011;10146;47.754;9.566;2022-10-31T02:53:37;43.70;;;23.75;;
19969;SDS011;10146;47.754;9.566;2022-10-31T02:56:11;47.53;;;24.92;;
19969;SDS011;10146;47.754;9.566;2022-10-31T02:58:41;52.33;;;25.70;;
19969;SDS011;10146;47.754;9.566;2022-10-31T03:04:16;78.88;;;29.40;;
19969;SDS011;10146;47.754;9.566;2022-10-31T03:06:54;41.80;;;24.95;;
19969;SDS011;10146;47.754;9.566;2022-10-31T03:17:50;44.03;;;22.38;;
19969;SDS011;10146;47.754;9.566;2022-10-31T03:20:34;36.72;;;22.10;;
19969;SDS011;10146;47.754;9.566;2022-10-31T03:23:14;40.10;;;22.38;;
19969;SDS011;10146;47.754;9.566;2022-10-31T03:25:41;28.35;;;20.67;;
19969;SDS011;10146;47.754;9.566;2022-10-31T03:28:08;30.02;;;21.10;;
19969;SDS011;10146;47.754;9.566;2022-10-31T03:30:36;35.35;;;21.95;;
19969;SDS011;10146;47.754;9.566;2022-10-31T03:33:07;31.70;;;20.92;;
19969;SDS011;10146;47.754;9.566;2022-10-31T03:35:39;28.08;;;21.15;;
19969;SDS011;10146;47.754;9.566;2022-10-31T03:38:09;29.67;;;21.80;;
19969;SDS011;10146;47.754;9.566;2022-10-31T03:40:36;34.95;;;21.05;;
19969;SDS011;10146;47.754;9.566;2022-10-31T03:43:05;27.80;;;21.70;;
19969;SDS011;10146;47.754;9.566;2022-10-31T03:45:35;29.35;;;22.08;;
19969;SDS011;10146;47.754;9.566;2022-10-31T03:48:08;31.80;;;23.10;;
19969;SDS011;10146;47.754;9.566;2022-10-31T03:50:38;27.05;;;21.90;;
19969;SDS011;10146;47.754;9.566;2022-10-31T03:53:26;30.35;;;22.90;;
19969;SDS011;10146;47.754;9.566;2022-10-31T03:57:00;24.70;;;20.30;;
19969;SDS011;10146;47.754;9.566;2022-10-31T03:59:04;28.05;;;20.38;;
19969;SDS011;10146;47.754;9.566;2022-10-31T04:01:34;27.77;;;20.88;;
19969;SDS011;10146;47.754;9.566;2022-10-31T04:04:06;26.50;;;20.48;;
19969;SDS011;10146;47.754;9.566;2022-10-31T04:06:32;30.70;;;21.67;;
19969;SDS011;10146;47.754;9.566;2022-10-31T04:09:02;20.65;;;18.45;;
19969;SDS011;10146;47.754;9.566;2022-10-31T04:11:34;20.75;;;18.55;;
19969;SDS011;10146;47.754;9.566;2022-10-31T04:14:03;20.85;;;18.50;;
19969;SDS011;10146;47.754;9.566;2022-10-31T04:16:30;20.85;;;18.73;;
19969;SDS011;10146;47.754;9.566;2022-10-31T04:18:56;21.13;;;18.75;;
19969;SDS011;10146;47.754;9.566;2022-10-31T04:21:28;19.48;;;17.25;;
19969;SDS011;10146;47.754;9.566;2022-10-31T04:23:55;27.35;;;19.38;;
19969;SDS011;10146;47.754;9.566;2022-10-31T04:26:21;35.08;;;20.83;;
19969;SDS011;10146;47.754;9.566;2022-10-31T04:28:47;21.95;;;18.00;;
19969;SDS011;10146;47.754;9.566;2022-10-31T04:31:12;33.78;;;19.67;;
19969;SDS011;10146;47.754;9.566;2022-10-31T04:33:39;39.08;;;21.35;;
19969;SDS011;10146;47.754;9.566;2022-10-31T04:36:04;28.30;;;20.27;;
19969;SDS011;10146;47.754;9.566;2022-10-31T04:38:30;25.38;;;19.42;;
19969;SDS011;10146;47.754;9.566;2022-10-31T04:40:56;27.65;;;19.70;;
19969;SDS011;10146;47.754;9.566;2022-10-31T04:43:21;29.33;;;19.10;;
19969;SDS011;10146;47.754;9.566;2022-10-31T04:45:47;31.15;;;20.27;;
19969;SDS011;10146;47.754;9.566;2022-10-31T04:48:13;22.95;;;18.92;;
19969;SDS011;10146;47.754;9.566;2022-10-31T04:50:38;20.92;;;18.73;;
19969;SDS011;10146;47.754;9.566;2022-10-31T04:53:04;24.08;;;19.63;;
19969;SDS011;10146;47.754;9.566;2022-10-31T04:55:30;25.67;;;19.42;;
19969;SDS011;10146;47.754;9.566;2022-10-31T04:57:55;19.75;;;17.85;;
19969;SDS011;10146;47.754;9.566;2022-10-31T05:00:21;21.52;;;18.63;;
19969;SDS011;10146;47.754;9.566;2022-10-31T05:02:48;21.50;;;19.20;;
19969;SDS011;10146;47.754;9.566;2022-10-31T05:05:19;20.75;;;18.08;;
19969;SDS011;10146;47.754;9.566;2022-10-31T05:07:47;25.80;;;18.27;;
19969;SDS011;10146;47.754;9.566;2022-10-31T05:10:14;19.25;;;17.23;;
19969;SDS011;10146;47.754;9.566;2022-10-31T05:12:45;40.28;;;20.05;;
19969;SDS011;10146;47.754;9.566;2022-10-31T05:15:12;34.83;;;19.45;;
19969;SDS011;10146;47.754;9.566;2022-10-31T05:17:38;31.98;;;18.88;;
19969;SDS011;10146;47.754;9.566;2022-10-31T05:20:04;31.77;;;19.70;;
19969;SDS011;10146;47.754;9.566;2022-10-31T05:22:30;24.85;;;19.45;;
19969;SDS011;10146;47.754;9.566;2022-10-31T05:24:56;25.55;;;19.60;;
19969;SDS011;10146;47.754;9.566;2022-10-31T05:27:21;25.27;;;19.17;;
19969;SDS011;10146;47.754;9.566;2022-10-31T05:29:47;31.45;;;20.52;;
19969;SDS011;10146;47.754;9.566;2022-10-31T05:32:12;26.98;;;19.92;;
19969;SDS011;10146;47.754;9.566;2022-10-31T05:34:38;21.33;;;19.25;;
19969;SDS011;10146;47.754;9.566;2022-10-31T05:37:03;26.83;;;19.23;;
19969;SDS011;10146;47.754;9.566;2022-10-31T05:39:29;20.65;;;18.52;;
19969;SDS011;10146;47.754;9.566;2022-10-31T05:41:55;31.45;;;19.80;;
19969;SDS011;10146;47.754;9.566;2022-10-31T05:44:20;31.00;;;17.42;;
19969;SDS011;10146;47.754;9.566;2022-10-31T05:46:46;28.25;;;17.33;;
19969;SDS011;10146;47.754;9.566;2022-10-31T05:49:12;25.58;;;17.00;;
19969;SDS011;10146;47.754;9.566;2022-10-31T05:51:38;41.22;;;18.60;;
19969;SDS011;10146;47.754;9.566;2022-10-31T05:54:03;41.55;;;17.48;;
19969;SDS011;10146;47.754;9.566;2022-10-31T05:56:29;43.47;;;16.92;;
19969;SDS011;10146;47.754;9.566;2022-10-31T05:58:55;34.33;;;17.90;;
19969;SDS011;10146;47.754;9.566;2022-10-31T06:01:21;71.20;;;19.98;;
19969;SDS011;10146;47.754;9.566;2022-10-31T06:03:46;44.25;;;18.02;;
19969;SDS011;10146;47.754;9.566;2022-10-31T06:06:12;39.20;;;16.98;;
19969;SDS011;10146;47.754;9.566;2022-10-31T06:08:37;47.55;;;17.40;;
19969;SDS011;10146;47.754;9.566;2022-10-31T06:11:03;38.15;;;16.63;;
19969;SDS011;10146;47.754;9.566;2022-10-31T06:13:29;32.35;;;16.17;;
19969;SDS011;10146;47.754;9.566;2022-10-31T06:15:54;35.60;;;17.33;;
19969;SDS011;10146;47.754;9.566;2022-10-31T06:18:20;40.42;;;17.65;;
19969;SDS011;10146;47.754;9.566;2022-10-31T06:20:45;26.08;;;17.25;;
19969;SDS011;10146;47.754;9.566;2022-10-31T06:23:11;22.13;;;15.35;;
19969;SDS011;10146;47.754;9.566;2022-10-31T06:25:37;38.45;;;16.98;;
19969;SDS011;10146;47.754;9.566;2022-10-31T06:28:02;30.88;;;16.42;;
19969;SDS011;10146;47.754;9.566;2022-10-31T06:30:28;29.17;;;16.67;;
19969;SDS011;10146;47.754;9.566;2022-10-31T06:32:53;35.90;;;15.55;;
19969;SDS011;10146;47.754;9.566;2022-10-31T06:35:19;24.20;;;16.10;;
19969;SDS011;10146;47.754;9.566;2022-10-31T06:37:52;29.02;;;16.65;;
19969;SDS011;10146;47.754;9.566;2022-10-31T06:40:18;24.92;;;16.35;;
19969;SDS011;10146;47.754;9.566;2022-10-31T06:42:44;28.42;;;16.40;;
19969;SDS011;10146;47.754;9.566;2022-10-31T06:45:09;28.25;;;16.95;;
19969;SDS011;10146;47.754;9.566;2022-10-31T06:47:35;27.10;;;18.30;;
19969;SDS011;10146;47.754;9.566;2022-10-31T06:50:01;34.92;;;18.33;;
19969;SDS011;10146;47.754;9.566;2022-10-31T06:52:26;24.33;;;16.67;;
19969;SDS011;10146;47.754;9.566;2022-10-31T06:54:52;22.60;;;16.83;;
19969;SDS011;10146;47.754;9.566;2022-10-31T06:57:17;39.58;;;17.77;;
19969;SDS011;10146;47.754;9.566;2022-10-31T06:59:43;39.90;;;18.33;;
19969;SDS011;10146;47.754;9.566;2022-10-31T07:02:09;23.02;;;16.70;;
19969;SDS011;10146;47.754;9.566;2022-10-31T07:04:35;21.17;;;16.65;;
19969;SDS011;10146;47.754;9.566;2022-10-31T07:07:01;30.13;;;17.33;;
19969;SDS011;10146;47.754;9.566;2022-10-31T07:09:27;31.38;;;17.58;;
19969;SDS011;10146;47.754;9.566;2022-10-31T07:11:52;23.25;;;16.65;;
19969;SDS011;10146;47.754;9.566;2022-10-31T07:14:18;35.53;;;17.58;;
19969;SDS011;10146;47.754;9.566;2022-10-31T07:16:47;34.88;;;17.08;;
19969;SDS011;10146;47.754;9.566;2022-10-31T07:19:14;34.65;;;17.75;;
19969;SDS011;10146;47.754;9.566;2022-10-31T07:21:40;31.23;;;16.58;;
19969;SDS011;10146;47.754;9.566;2022-10-31T07:24:05;28.15;;;16.10;;
19969;SDS011;10146;47.754;9.566;2022-10-31T07:26:31;32.67;;;16.95;;
19969;SDS011;10146;47.754;9.566;2022-10-31T07:28:57;37.72;;;17.63;;
19969;SDS011;10146;47.754;9.566;2022-10-31T07:31:24;28.85;;;15.85;;
19969;SDS011;10146;47.754;9.566;2022-10-31T07:33:49;37.13;;;16.98;;
19969;SDS011;10146;47.754;9.566;2022-10-31T07:36:15;29.70;;;16.63;;
19969;SDS011;10146;47.754;9.566;2022-10-31T07:38:41;38.72;;;17.15;;
19969;SDS011;10146;47.754;9.566;2022-10-31T07:41:06;24.02;;;16.60;;
19969;SDS011;10146;47.754;9.566;2022-10-31T07:43:32;17.67;;;15.55;;
19969;SDS011;10146;47.754;9.566;2022-10-31T07:45:57;23.45;;;14.23;;
19969;SDS011;10146;47.754;9.566;2022-10-31T07:48:23;16.58;;;14.95;;
19969;SDS011;10146;47.754;9.566;2022-10-31T07:50:48;16.75;;;13.90;;
19969;SDS011;10146;47.754;9.566;2022-10-31T07:53:14;16.65;;;14.82;;
19969;SDS011;10146;47.754;9.566;2022-10-31T07:55:41;15.25;;;13.65;;
19969;SDS011;10146;47.754;9.566;2022-10-31T07:58:10;16.23;;;13.68;;
19969;SDS011;10146;47.754;9.566;2022-10-31T08:00:38;16.70;;;14.48;;
19969;SDS011;10146;47.754;9.566;2022-10-31T08:03:09;19.88;;;13.25;;
19969;SDS011;10146;47.754;9.566;2022-10-31T08:05:36;14.30;;;12.88;;
19969;SDS011;10146;47.754;9.566;2022-10-31T08:08:03;21.95;;;15.15;;
19969;SDS011;10146;47.754;9.566;2022-10-31T08:10:29;14.98;;;13.50;;
19969;SDS011;10146;47.754;9.566;2022-10-31T08:12:59;22.27;;;14.85;;
19969;SDS011;10146;47.754;9.566;2022-10-31T08:15:30;19.88;;;13.77;;
19969;SDS011;10146;47.754;9.566;2022-10-31T08:17:56;27.55;;;14.32;;
19969;SDS011;10146;47.754;9.566;2022-10-31T08:20:21;22.17;;;14.70;;
19969;SDS011;10146;47.754;9.566;2022-10-31T08:22:56;19.48;;;15.27;;
19969;SDS011;10146;47.754;9.566;2022-10-31T08:25:23;18.30;;;14.85;;
19969;SDS011;10146;47.754;9.566;2022-10-31T08:27:51;31.90;;;16.42;;
19969;SDS011;10146;47.754;9.566;2022-10-31T08:30:18;21.95;;;15.65;;
19969;SDS011;10146;47.754;9.566;2022-10-31T08:32:44;58.22;;;17.95;;
19969;SDS011;10146;47.754;9.566;2022-10-31T08:35:10;46.10;;;17.95;;
19969;SDS011;10146;47.754;9.566;2022-10-31T08:37:36;47.65;;;17.25;;
19969;SDS011;10146;47.754;9.566;2022-10-31T08:40:02;38.78;;;16.45;;
19969;SDS011;10146;47.754;9.566;2022-10-31T08:42:28;68.63;;;18.73;;
19969;SDS011;10146;47.754;9.566;2022-10-31T08:44:53;60.97;;;17.15;;
19969;SDS011;10146;47.754;9.566;2022-10-31T08:47:19;50.40;;;15.70;;
19969;SDS011;10146;47.754;9.566;2022-10-31T08:49:44;37.88;;;16.17;;
19969;SDS011;10146;47.754;9.566;2022-10-31T08:52:10;43.88;;;15.88;;
19969;SDS011;10146;47.754;9.566;2022-10-31T08:54:35;50.35;;;16.02;;
19969;SDS011;10146;47.754;9.566;2022-10-31T08:57:01;30.33;;;16.92;;
19969;SDS011;10146;47.754;9.566;2022-10-31T08:59:27;71.63;;;17.70;;
19969;SDS011;10146;47.754;9.566;2022-10-31T09:01:52;24.90;;;15.00;;
19969;SDS011;10146;47.754;9.566;2022-10-31T09:04:18;23.30;;;16.05;;
19969;SDS011;10146;47.754;9.566;2022-10-31T09:06:43;31.23;;;15.40;;
19969;SDS011;10146;47.754;9.566;2022-10-31T09:09:09;23.17;;;15.02;;
19969;SDS011;10146;47.754;9.566;2022-10-31T09:11:34;18.88;;;14.07;;
19969;SDS011;10146;47.754;9.566;2022-10-31T09:14:00;81.20;;;18.83;;
19969;SDS011;10146;47.754;9.566;2022-10-31T09:16:25;45.50;;;17.70;;
19969;SDS011;10146;47.754;9.566;2022-10-31T09:18:51;30.58;;;15.88;;
19969;SDS011;10146;47.754;9.566;2022-10-31T09:21:16;24.90;;;17.02;;
19969;SDS011;10146;47.754;9.566;2022-10-31T09:23:42;60.72;;;16.42;;
19969;SDS011;10146;47.754;9.566;2022-10-31T09:26:08;29.85;;;16.17;;
19969;SDS011;10146;47.754;9.566;2022-10-31T09:28:33;30.00;;;17.05;;
19969;SDS011;10146;47.754;9.566;2022-10-31T09:31:00;59.22;;;18.20;;
19969;SDS011;10146;47.754;9.566;2022-10-31T09:33:25;22.92;;;15.77;;
19969;SDS011;10146;47.754;9.566;2022-10-31T09:35:51;55.85;;;16.60;;
19969;SDS011;10146;47.754;9.566;2022-10-31T09:38:18;45.53;;;16.55;;
19969;SDS011;10146;47.754;9.566;2022-10-31T09:40:54;49.28;;;15.95;;
19969;SDS011;10146;47.754;9.566;2022-10-31T09:49:01;34.08;;;16.48;;
19969;SDS011;10146;47.754;9.566;2022-10-31T09:51:43;47.15;;;16.83;;
19969;SDS011;10146;47.754;9.566;2022-10-31T09:54:18;25.38;;;15.25;;
19969;SDS011;10146;47.754;9.566;2022-10-31T09:56:45;21.73;;;14.88;;
19969;SDS011;10146;47.754;9.566;2022-10-31T09:59:12;16.98;;;14.82;;
19969;SDS011;10146;47.754;9.566;2022-10-31T10:10:20;19.88;;;13.85;;
19969;SDS011;10146;47.754;9.566;2022-10-31T10:13:01;17.30;;;14.10;;
19969;SDS011;10146;47.754;9.566;2022-10-31T10:21:24;14.48;;;12.98;;
19969;SDS011;10146;47.754;9.566;2022-10-31T10:26:36;22.50;;;18.83;;
19969;SDS011;10146;47.754;9.566;2022-10-31T10:31:35;31.92;;;27.30;;
19969;SDS011;10146;47.754;9.566;2022-10-31T10:37:00;32.20;;;27.90;;
19969;SDS011;10146;47.754;9.566;2022-10-31T10:39:39;33.10;;;27.50;;
19969;SDS011;10146;47.754;9.566;2022-10-31T10:42:12;35.15;;;26.52;;
19969;SDS011;10146;47.754;9.566;2022-10-31T10:44:59;32.05;;;25.83;;
19969;SDS011;10146;47.754;9.566;2022-10-31T10:47:45;24.67;;;21.95;;
19969;SDS011;10146;47.754;9.566;2022-10-31T10:50:22;35.85;;;28.90;;
19969;SDS011;10146;47.754;9.566;2022-10-31T10:53:05;45.22;;;37.33;;
19969;SDS011;10146;47.754;9.566;2022-10-31T10:58:43;56.70;;;43.88;;
19969;SDS011;10146;47.754;9.566;2022-10-31T11:01:10;59.78;;;44.90;;
19969;SDS011;10146;47.754;9.566;2022-10-31T11:03:38;68.88;;;50.00;;
19969;SDS011;10146;47.754;9.566;2022-10-31T11:06:04;61.10;;;47.72;;
19969;SDS011;10146;47.754;9.566;2022-10-31T11:08:41;49.40;;;37.70;;
19969;SDS011;10146;47.754;9.566;2022-10-31T11:13:41;55.42;;;44.22;;
19969;SDS011;10146;47.754;9.566;2022-10-31T11:16:31;39.22;;;33.03;;
19969;SDS011;10146;47.754;9.566;2022-10-31T11:21:38;58.92;;;45.15;;
19969;SDS011;10146;47.754;9.566;2022-10-31T11:26:35;54.53;;;43.95;;
19969;SDS011;10146;47.754;9.566;2022-10-31T11:29:03;45.85;;;36.28;;
19969;SDS011;10146;47.754;9.566;2022-10-31T11:31:30;38.42;;;32.75;;
19969;SDS011;10146;47.754;9.566;2022-10-31T11:34:00;41.22;;;32.95;;
19969;SDS011;10146;47.754;9.566;2022-10-31T11:36:38;35.17;;;29.70;;
19969;SDS011;10146;47.754;9.566;2022-10-31T11:39:13;31.50;;;28.08;;
19969;SDS011;10146;47.754;9.566;2022-10-31T11:41:45;34.17;;;29.90;;
19969;SDS011;10146;47.754;9.566;2022-10-31T11:44:16;38.58;;;32.55;;
19969;SDS011;10146;47.754;9.566;2022-10-31T11:46:45;41.25;;;34.38;;
19969;SDS011;10146;47.754;9.566;2022-10-31T11:49:25;37.88;;;32.55;;
19969;SDS011;10146;47.754;9.566;2022-10-31T11:51:54;36.15;;;31.65;;
19969;SDS011;10146;47.754;9.566;2022-10-31T11:54:24;37.13;;;32.40;;
19969;SDS011;10146;47.754;9.566;2022-10-31T11:56:53;36.85;;;32.70;;
19969;SDS011;10146;47.754;9.566;2022-10-31T11:59:21;33.80;;;29.83;;
19969;SDS011;10146;47.754;9.566;2022-10-31T12:01:48;32.40;;;28.90;;
19969;SDS011;10146;47.754;9.566;2022-10-31T12:04:15;32.00;;;28.80;;
19969;SDS011;10146;47.754;9.566;2022-10-31T12:06:42;29.40;;;25.90;;
19969;SDS011;10146;47.754;9.566;2022-10-31T12:09:16;29.75;;;26.42;;
19969;SDS011;10146;47.754;9.566;2022-10-31T12:14:22;27.75;;;25.02;;
19969;SDS011;10146;47.754;9.566;2022-10-31T12:17:01;27.00;;;24.05;;
19969;SDS011;10146;47.754;9.566;2022-10-31T12:23:29;26.48;;;23.67;;
19969;SDS011;10146;47.754;9.566;2022-10-31T12:31:16;25.80;;;23.27;;
19969;SDS011;10146;47.754;9.566;2022-10-31T12:34:07;24.15;;;21.67;;
19969;SDS011;10146;47.754;9.566;2022-10-31T12:36:55;23.63;;;21.10;;
19969;SDS011;10146;47.754;9.566;2022-10-31T12:39:24;23.73;;;21.33;;
19969;SDS011;10146;47.754;9.566;2022-10-31T12:53:01;25.02;;;22.55;;
19969;SDS011;10146;47.754;9.566;2022-10-31T12:58:42;25.67;;;22.98;;
19969;SDS011;10146;47.754;9.566;2022-10-31T13:01:17;24.27;;;21.83;;
19969;SDS011;10146;47.754;9.566;2022-10-31T13:03:58;25.45;;;22.33;;
19969;SDS011;10146;47.754;9.566;2022-10-31T13:06:38;23.25;;;20.75;;
19969;SDS011;10146;47.754;9.566;2022-10-31T13:09:15;22.33;;;19.98;;
19969;SDS011;10146;47.754;9.566;2022-10-31T13:11:48;23.25;;;20.88;;
19969;SDS011;10146;47.754;9.566;2022-10-31T13:14:26;23.70;;;21.23;;
19969;SDS011;10146;47.754;9.566;2022-10-31T13:17:04;21.75;;;19.63;;
19969;SDS011;10146;47.754;9.566;2022-10-31T13:19:33;22.27;;;20.08;;
19969;SDS011;10146;47.754;9.566;2022-10-31T13:22:04;22.40;;;18.95;;
19969;SDS011;10146;47.754;9.566;2022-10-31T13:24:36;21.35;;;19.17;;
19969;SDS011;10146;47.754;9.566;2022-10-31T13:27:13;21.92;;;19.80;;
19969;SDS011;10146;47.754;9.566;2022-10-31T13:35:41;20.52;;;18.42;;
19969;SDS011;10146;47.754;9.566;2022-10-31T13:44:10;21.42;;;18.73;;
19969;SDS011;10146;47.754;9.566;2022-10-31T13:46:45;20.42;;;18.30;;
19969;SDS011;10146;47.754;9.566;2022-10-31T13:52:11;20.15;;;18.08;;
19969;SDS011;10146;47.754;9.566;2022-10-31T13:54:49;20.27;;;18.17;;
19969;SDS011;10146;47.754;9.566;2022-10-31T14:02:47;21.83;;;19.55;;
19969;SDS011;10146;47.754;9.566;2022-10-31T14:07:54;22.30;;;19.15;;
19969;SDS011;10146;47.754;9.566;2022-10-31T14:10:32;24.27;;;21.05;;
19969;SDS011;10146;47.754;9.566;2022-10-31T14:15:34;30.10;;;24.17;;
19969;SDS011;10146;47.754;9.566;2022-10-31T14:18:06;33.83;;;26.17;;
19969;SDS011;10146;47.754;9.566;2022-10-31T14:20:47;34.60;;;26.02;;
19969;SDS011;10146;47.754;9.566;2022-10-31T14:26:20;26.90;;;23.83;;
19969;SDS011;10146;47.754;9.566;2022-10-31T14:28:54;24.20;;;21.73;;
19969;SDS011;10146;47.754;9.566;2022-10-31T14:34:01;23.33;;;20.83;;
19969;SDS011;10146;47.754;9.566;2022-10-31T14:37:01;23.70;;;21.25;;
19969;SDS011;10146;47.754;9.566;2022-10-31T14:39:56;24.05;;;21.25;;
19969;SDS011;10146;47.754;9.566;2022-10-31T14:50:59;22.58;;;19.70;;
19969;SDS011;10146;47.754;9.566;2022-10-31T14:53:27;21.25;;;19.15;;
19969;SDS011;10146;47.754;9.566;2022-10-31T14:56:13;21.80;;;19.50;;
19969;SDS011;10146;47.754;9.566;2022-10-31T14:58:47;22.52;;;20.25;;
19969;SDS011;10146;47.754;9.566;2022-10-31T15:01:24;22.13;;;19.83;;
19969;SDS011;10146;47.754;9.566;2022-10-31T15:04:00;20.45;;;18.25;;
19969;SDS011;10146;47.754;9.566;2022-10-31T15:06:47;20.83;;;18.73;;
19969;SDS011;10146;47.754;9.566;2022-10-31T15:11:47;23.95;;;18.08;;
19969;SDS011;10146;47.754;9.566;2022-10-31T15:14:23;20.75;;;18.55;;
19969;SDS011;10146;47.754;9.566;2022-10-31T15:16:51;20.10;;;18.17;;
19969;SDS011;10146;47.754;9.566;2022-10-31T15:19:20;23.17;;;19.88;;
19969;SDS011;10146;47.754;9.566;2022-10-31T15:21:51;23.85;;;21.33;;
19969;SDS011;10146;47.754;9.566;2022-10-31T15:24:18;21.20;;;19.02;;
19969;SDS011;10146;47.754;9.566;2022-10-31T15:26:47;22.70;;;19.42;;
19969;SDS011;10146;47.754;9.566;2022-10-31T15:29:16;22.63;;;20.33;;
19969;SDS011;10146;47.754;9.566;2022-10-31T15:31:53;23.08;;;20.67;;
19969;SDS011;10146;47.754;9.566;2022-10-31T15:34:28;22.85;;;20.45;;
19969;SDS011;10146;47.754;9.566;2022-10-31T15:37:12;24.02;;;21.45;;
19969;SDS011;10146;47.754;9.566;2022-10-31T15:39:39;25.10;;;21.52;;
19969;SDS011;10146;47.754;9.566;2022-10-31T15:42:14;23.85;;;21.38;;
19969;SDS011;10146;47.754;9.566;2022-10-31T15:45:37;29.75;;;26.00;;
19969;SDS011;10146;47.754;9.566;2022-10-31T15:47:37;27.55;;;24.75;;
19969;SDS011;10146;47.754;9.566;2022-10-31T15:52:54;30.50;;;26.90;;
19969;SDS011;10146;47.754;9.566;2022-10-31T15:55:27;29.13;;;26.13;;
19969;SDS011;10146;47.754;9.566;2022-10-31T15:58:01;31.80;;;28.48;;
19969;SDS011;10146;47.754;9.566;2022-10-31T16:00:33;32.05;;;28.55;;
19969;SDS011;10146;47.754;9.566;2022-10-31T16:03:42;32.17;;;27.08;;
19969;SDS011;10146;47.754;9.566;2022-10-31T16:05:52;38.00;;;30.50;;
19969;SDS011;10146;47.754;9.566;2022-10-31T16:10:49;33.67;;;29.88;;
19969;SDS011;10146;47.754;9.566;2022-10-31T16:13:15;36.60;;;30.10;;
19969;SDS011;10146;47.754;9.566;2022-10-31T16:15:51;35.28;;;31.50;;
19969;SDS011;10146;47.754;9.566;2022-10-31T16:18:20;38.38;;;32.90;;
19969;SDS011;10146;47.754;9.566;2022-10-31T16:20:50;36.83;;;32.60;;
19969;SDS011;10146;47.754;9.566;2022-10-31T16:23:18;39.95;;;34.33;;
19969;SDS011;10146;47.754;9.566;2022-10-31T16:25:45;42.03;;;33.55;;
19969;SDS011;10146;47.754;9.566;2022-10-31T16:28:16;40.38;;;33.92;;
19969;SDS011;10146;47.754;9.566;2022-10-31T16:30:49;38.90;;;34.67;;
19969;SDS011;10146;47.754;9.566;2022-10-31T16:33:30;38.35;;;32.83;;
19969;SDS011;10146;47.754;9.566;2022-10-31T16:38:52;41.00;;;33.38;;
19969;SDS011;10146;47.754;9.566;2022-10-31T16:41:18;36.95;;;31.77;;
19969;SDS011;10146;47.754;9.566;2022-10-31T16:43:44;38.35;;;31.92;;
19969;SDS011;10146;47.754;9.566;2022-10-31T16:46:14;34.83;;;31.17;;
19969;SDS011;10146;47.754;9.566;2022-10-31T16:48:43;32.60;;;29.20;;
19969;SDS011;10146;47.754;9.566;2022-10-31T16:51:08;32.33;;;28.98;;
19969;SDS011;10146;47.754;9.566;2022-10-31T16:53:34;34.20;;;30.13;;